createdAt,value
2018-03-24T00:00:18.556Z,7.50
2018-03-24T00:02:46.037Z,7.50
2018-03-24T00:05:13.497Z,7.60
2018-03-24T00:07:40.968Z,7.50
2018-03-24T00:10:08.414Z,7.60
2018-03-24T00:12:35.905Z,7.60
2018-03-24T00:15:03.384Z,7.60
2018-03-24T00:17:30.888Z,7.50
2018-03-24T00:19:58.504Z,7.40
2018-03-24T00:22:26.182Z,7.20
2018-03-24T00:24:53.739Z,7.20
2018-03-24T00:27:21.244Z,7.20
2018-03-24T00:29:48.733Z,7.10
2018-03-24T00:32:17.122Z,7.00
2018-03-24T00:34:44.614Z,7.00
2018-03-24T00:37:12.059Z,7.00
2018-03-24T00:39:39.552Z,6.90
2018-03-24T00:42:07.012Z,6.80
2018-03-24T00:44:34.481Z,6.80
2018-03-24T00:47:02.719Z,6.70
2018-03-24T00:49:30.196Z,6.70
2018-03-24T00:51:57.652Z,6.70
2018-03-24T00:54:25.130Z,6.70
2018-03-24T00:56:53.380Z,6.70
2018-03-24T00:59:20.830Z,6.70
2018-03-24T01:01:48.317Z,6.70
2018-03-24T01:04:16.561Z,6.60
2018-03-24T01:06:44.027Z,6.60
2018-03-24T01:09:11.507Z,6.50
2018-03-24T01:11:39.743Z,6.50
2018-03-24T01:14:07.192Z,6.40
2018-03-24T01:16:34.664Z,6.40
2018-03-24T01:19:02.141Z,6.30
2018-03-24T01:21:29.608Z,6.30
2018-03-24T01:23:57.845Z,6.20
2018-03-24T01:26:25.326Z,6.20
2018-03-24T01:28:52.791Z,6.10
2018-03-24T01:31:21.011Z,6.10
2018-03-24T01:33:48.484Z,6.10
2018-03-24T01:36:15.943Z,6.00
2018-03-24T01:38:43.407Z,6.00
2018-03-24T01:41:10.862Z,6.00
2018-03-24T01:43:38.347Z,5.90
2018-03-24T01:46:05.799Z,5.90
2018-03-24T01:48:34.026Z,5.90
2018-03-24T01:51:01.482Z,5.90
2018-03-24T01:53:40.988Z,5.90
2018-03-24T01:56:09.204Z,5.80
2018-03-24T01:58:36.672Z,5.80
2018-03-24T02:01:04.148Z,5.80
2018-03-24T02:03:31.599Z,5.80
2018-03-24T02:05:59.068Z,5.80
2018-03-24T02:08:27.283Z,5.80
2018-03-24T02:10:54.758Z,5.80
2018-03-24T02:13:22.242Z,5.80
2018-03-24T02:15:49.711Z,5.80
2018-03-24T02:18:17.940Z,5.80
2018-03-24T02:20:45.376Z,5.70
2018-03-24T02:23:12.848Z,5.80
2018-03-24T02:25:40.308Z,5.70
2018-03-24T02:28:07.789Z,5.70
2018-03-24T02:30:35.232Z,5.60
2018-03-24T02:33:02.703Z,5.60
2018-03-24T02:35:30.164Z,5.50
2018-03-24T02:37:57.635Z,5.40
2018-03-24T02:40:25.860Z,5.20
2018-03-24T02:42:53.347Z,5.20
2018-03-24T02:45:20.801Z,5.10
2018-03-24T02:47:48.263Z,5.10
2018-03-24T02:50:15.753Z,5.00
2018-03-24T02:52:43.976Z,4.90
2018-03-24T02:55:11.450Z,4.90
2018-03-24T02:57:38.907Z,4.80
2018-03-24T03:00:06.388Z,4.80
2018-03-24T03:02:34.603Z,4.70
2018-03-24T03:05:02.076Z,4.70
2018-03-24T03:07:29.528Z,4.70
2018-03-24T03:09:57.072Z,4.60
2018-03-24T03:12:24.516Z,4.50
2018-03-24T03:14:51.981Z,4.50
2018-03-24T03:17:19.476Z,4.50
2018-03-24T03:19:46.948Z,4.40
2018-03-24T03:22:15.195Z,4.40
2018-03-24T03:24:42.654Z,4.40
2018-03-24T03:27:10.137Z,4.30
2018-03-24T03:29:37.575Z,4.30
2018-03-24T03:32:07.026Z,4.30
2018-03-24T03:34:34.492Z,4.20
2018-03-24T03:37:01.966Z,4.20
2018-03-24T03:39:29.432Z,4.20
2018-03-24T03:41:56.897Z,4.20
2018-03-24T03:44:24.354Z,4.10
2018-03-24T03:46:51.842Z,4.10
2018-03-24T03:49:20.051Z,4.00
2018-03-24T03:51:47.487Z,4.00
2018-03-24T03:54:14.965Z,4.10
2018-03-24T03:56:42.407Z,4.00
2018-03-24T03:59:09.900Z,4.00
2018-03-24T04:01:37.376Z,4.00
2018-03-24T04:04:04.856Z,4.00
2018-03-24T04:06:33.070Z,4.00
2018-03-24T04:09:00.540Z,4.00
2018-03-24T04:11:27.987Z,4.00
2018-03-24T04:13:55.472Z,4.00
2018-03-24T04:16:22.934Z,4.00
2018-03-24T04:18:50.380Z,4.00
2018-03-24T04:21:18.618Z,3.90
2018-03-24T04:23:46.088Z,3.90
2018-03-24T04:26:13.578Z,3.90
2018-03-24T04:28:41.048Z,3.90
2018-03-24T04:31:09.287Z,3.80
2018-03-24T04:33:36.762Z,3.80
2018-03-24T04:36:04.260Z,3.80
2018-03-24T04:38:31.710Z,3.80
2018-03-24T04:40:59.204Z,3.80
2018-03-24T04:43:26.651Z,3.80
2018-03-24T04:45:54.154Z,3.70
2018-03-24T04:48:21.620Z,3.70
2018-03-24T04:50:49.856Z,3.60
2018-03-24T04:53:17.314Z,3.60
2018-03-24T04:55:44.827Z,3.60
2018-03-24T04:58:12.302Z,3.60
2018-03-24T05:00:39.763Z,3.60
2018-03-24T05:03:07.212Z,3.60
2018-03-24T05:05:34.693Z,3.50
2018-03-24T05:08:02.135Z,3.50
2018-03-24T05:10:29.591Z,3.50
2018-03-24T05:12:57.080Z,3.50
2018-03-24T05:15:24.518Z,3.50
2018-03-24T05:17:51.986Z,3.50
2018-03-24T05:20:19.434Z,3.50
2018-03-24T05:22:46.928Z,3.50
2018-03-24T05:25:15.153Z,3.40
2018-03-24T05:27:42.624Z,3.40
2018-03-24T05:30:10.071Z,3.40
2018-03-24T05:32:37.531Z,3.40
2018-03-24T05:35:04.993Z,3.30
2018-03-24T05:37:32.472Z,3.30
2018-03-24T05:40:00.723Z,3.30
2018-03-24T05:42:28.167Z,3.30
2018-03-24T05:44:55.646Z,3.30
2018-03-24T05:47:23.091Z,3.30
2018-03-24T05:49:50.561Z,3.30
2018-03-24T05:52:18.006Z,3.30
2018-03-24T05:54:45.487Z,3.30
2018-03-24T05:57:12.928Z,3.30
2018-03-24T05:59:40.403Z,3.30
2018-03-24T06:02:08.641Z,3.40
2018-03-24T06:04:36.132Z,3.30
2018-03-24T06:07:04.350Z,3.40
2018-03-24T06:09:31.812Z,3.40
2018-03-24T06:11:59.285Z,3.40
2018-03-24T06:14:26.745Z,3.50
2018-03-24T06:16:54.220Z,3.50
2018-03-24T06:19:21.663Z,3.60
2018-03-24T06:21:49.148Z,3.60
2018-03-24T06:24:17.364Z,3.80
2018-03-24T06:26:44.848Z,3.70
2018-03-24T06:29:12.304Z,3.80
2018-03-24T06:31:43.445Z,3.90
2018-03-24T06:34:10.888Z,3.90
2018-03-24T06:36:39.985Z,4.00
2018-03-24T06:39:07.449Z,4.00
2018-03-24T06:41:34.927Z,4.00
2018-03-24T06:44:02.378Z,4.10
2018-03-24T06:46:29.847Z,4.10
2018-03-24T06:48:58.098Z,4.20
2018-03-24T06:51:25.548Z,4.20
2018-03-24T06:53:53.035Z,4.30
2018-03-24T06:56:20.534Z,4.40
2018-03-24T06:58:47.991Z,4.40
2018-03-24T07:01:15.484Z,4.50
2018-03-24T07:03:42.970Z,4.50
2018-03-24T07:06:11.205Z,4.70
2018-03-24T07:08:38.689Z,4.70
2018-03-24T07:11:06.156Z,4.70
2018-03-24T07:13:33.635Z,4.80
2018-03-24T07:16:01.104Z,4.80
2018-03-24T07:18:28.561Z,4.90
2018-03-24T07:20:56.026Z,4.90
2018-03-24T07:23:23.483Z,5.00
2018-03-24T07:25:50.959Z,5.00
2018-03-24T07:28:18.415Z,5.10
2018-03-24T07:30:45.902Z,5.20
2018-03-24T07:33:13.344Z,5.20
2018-03-24T07:35:40.815Z,5.30
2018-03-24T07:38:08.297Z,5.40
2018-03-24T07:40:35.752Z,5.40
2018-03-24T07:43:03.228Z,5.50
2018-03-24T07:45:30.719Z,5.70
2018-03-24T07:47:58.176Z,5.70
2018-03-24T07:50:25.679Z,5.80
2018-03-24T07:52:53.186Z,5.90
2018-03-24T07:55:20.752Z,6.00
2018-03-24T07:57:48.338Z,6.10
2018-03-24T08:00:15.833Z,6.10
2018-03-24T08:02:43.280Z,6.20
2018-03-24T08:05:10.774Z,6.30
2018-03-24T08:07:38.220Z,6.30
2018-03-24T08:10:05.755Z,6.40
2018-03-24T08:12:33.280Z,6.40
2018-03-24T08:15:01.521Z,6.60
2018-03-24T08:17:28.986Z,6.60
2018-03-24T08:19:56.490Z,6.60
2018-03-24T08:22:23.955Z,6.70
2018-03-24T08:24:51.454Z,6.80
2018-03-24T08:27:18.915Z,6.80
2018-03-24T08:29:46.381Z,6.90
2018-03-24T08:32:14.650Z,7.00
2018-03-24T08:34:42.105Z,7.00
2018-03-24T08:37:09.789Z,7.10
2018-03-24T08:39:38.016Z,7.30
2018-03-24T08:42:05.478Z,7.30
2018-03-24T08:44:32.952Z,7.40
2018-03-24T08:47:00.423Z,7.40
2018-03-24T08:49:28.689Z,7.60
2018-03-24T08:51:56.173Z,7.60
2018-03-24T08:54:23.640Z,7.70
2018-03-24T08:56:51.132Z,7.80
2018-03-24T08:59:18.585Z,7.90
2018-03-24T09:01:46.084Z,8.00
2018-03-24T09:04:14.319Z,8.10
2018-03-24T09:06:41.796Z,8.10
2018-03-24T09:09:09.284Z,8.20
2018-03-24T09:11:36.769Z,8.30
2018-03-24T09:14:04.256Z,8.40
2018-03-24T09:16:31.695Z,8.50
2018-03-24T09:18:59.189Z,8.60
2018-03-24T09:21:26.643Z,8.70
2018-03-24T09:23:54.207Z,8.70
2018-03-24T09:26:22.427Z,8.80
2018-03-24T09:28:49.926Z,8.80
2018-03-24T09:31:17.371Z,8.80
2018-03-24T09:33:44.872Z,8.90
2018-03-24T09:36:13.117Z,9.00
2018-03-24T09:38:40.564Z,9.00
2018-03-24T09:41:08.051Z,9.10
2018-03-24T09:43:36.285Z,9.20
2018-03-24T09:46:03.756Z,9.10
2018-03-24T09:48:31.221Z,9.20
2018-03-24T09:50:58.706Z,9.20
2018-03-24T09:53:26.155Z,9.30
2018-03-24T09:55:53.648Z,9.30
2018-03-24T09:58:21.115Z,9.30
2018-03-24T10:00:48.576Z,9.40
2018-03-24T10:03:16.077Z,9.50
2018-03-24T10:05:43.535Z,9.60
2018-03-24T10:08:11.034Z,9.60
2018-03-24T10:10:38.539Z,9.70
2018-03-24T10:13:06.792Z,9.80
2018-03-24T10:15:34.288Z,9.80
2018-03-24T10:18:01.791Z,9.90
2018-03-24T10:23:59.762Z,10.10
2018-03-24T10:26:27.218Z,10.20
2018-03-24T10:28:54.721Z,10.30
2018-03-24T10:31:22.199Z,10.40
2018-03-24T10:33:56.219Z,10.60
2018-03-24T10:36:23.698Z,10.60
2018-03-24T10:38:51.189Z,10.70
2018-03-24T10:41:18.704Z,10.80
2018-03-24T10:43:46.951Z,10.90
2018-03-24T10:46:15.204Z,11.20
2018-03-24T10:48:43.466Z,11.30
2018-03-24T10:51:10.948Z,11.30
2018-03-24T10:53:38.409Z,11.40
2018-03-24T10:56:06.675Z,11.70
2018-03-24T10:58:34.905Z,11.80
2018-03-24T11:01:03.197Z,11.70
2018-03-24T11:03:30.693Z,11.70
2018-03-24T11:05:58.919Z,11.80
2018-03-24T11:08:26.420Z,11.80
2018-03-24T11:10:54.644Z,12.20
2018-03-24T11:13:22.125Z,12.20
2018-03-24T11:15:49.584Z,12.30
2018-03-24T11:18:17.076Z,12.60
2018-03-24T11:20:45.340Z,12.90
2018-03-24T11:23:13.561Z,12.90
2018-03-24T11:25:40.607Z,12.90
2018-03-24T11:28:08.060Z,13.00
2018-03-24T11:30:35.530Z,13.10
2018-03-24T11:33:03.058Z,13.20
2018-03-24T11:35:30.505Z,13.40
2018-03-24T11:37:58.713Z,13.60
2018-03-24T11:40:26.175Z,13.60
2018-03-24T11:42:53.631Z,13.70
2018-03-24T11:45:21.130Z,13.70
2018-03-24T11:47:49.348Z,13.80
2018-03-24T11:50:16.845Z,13.80
2018-03-24T11:52:44.263Z,13.90
2018-03-24T11:55:11.743Z,13.90
2018-03-24T11:57:39.192Z,13.80
2018-03-24T12:00:10.336Z,13.90
2018-03-24T12:02:37.792Z,14.10
2018-03-24T12:05:05.266Z,14.00
2018-03-24T12:07:32.783Z,14.00
2018-03-24T12:10:00.215Z,14.00
2018-03-24T12:12:27.726Z,14.30
2018-03-24T12:14:55.192Z,14.40
2018-03-24T12:17:24.228Z,14.60
2018-03-24T12:19:52.451Z,14.70
2018-03-24T12:22:19.898Z,14.70
2018-03-24T12:24:47.379Z,14.70
2018-03-24T12:27:14.929Z,14.70
2018-03-24T12:29:42.380Z,14.80
2018-03-24T12:32:09.908Z,14.90
2018-03-24T12:34:37.418Z,15.10
2018-03-24T12:37:05.724Z,15.40
2018-03-24T12:39:33.243Z,15.40
2018-03-24T12:42:00.764Z,15.70
2018-03-24T12:44:28.282Z,15.80
2018-03-24T12:46:56.576Z,16.00
2018-03-24T12:49:24.100Z,16.00
2018-03-24T12:51:52.413Z,16.30
2018-03-24T12:54:19.912Z,16.20
2018-03-24T12:56:47.462Z,16.20
2018-03-24T12:59:14.973Z,16.30
2018-03-24T13:01:42.508Z,16.10
2018-03-24T13:04:10.779Z,16.10
2018-03-24T13:06:38.304Z,16.10
2018-03-24T13:09:05.828Z,16.10
2018-03-24T13:11:33.329Z,16.10
2018-03-24T13:14:00.970Z,16.20
2018-03-24T13:16:28.469Z,16.20
2018-03-24T13:18:55.995Z,16.30
2018-03-24T13:21:23.500Z,16.40
2018-03-24T13:23:51.918Z,16.50
2018-03-24T13:26:19.435Z,16.50
2018-03-24T13:28:47.739Z,16.50
2018-03-24T13:31:15.265Z,16.50
2018-03-24T13:33:43.584Z,16.60
2018-03-24T13:36:11.113Z,16.60
2018-03-24T13:38:38.616Z,16.40
2018-03-24T13:41:06.146Z,16.40
2018-03-24T13:43:33.649Z,16.30
2018-03-24T13:46:01.919Z,16.50
2018-03-24T13:48:29.390Z,16.50
2018-03-24T13:50:56.867Z,16.60
2018-03-24T13:53:25.093Z,16.50
2018-03-24T13:55:52.597Z,16.40
2018-03-24T13:58:20.809Z,16.50
2018-03-24T14:00:48.304Z,16.50
2018-03-24T14:03:15.817Z,16.50
2018-03-24T14:05:43.320Z,16.50
2018-03-24T14:08:10.775Z,16.40
2018-03-24T14:10:38.224Z,16.30
2018-03-24T14:13:07.230Z,15.90
2018-03-24T14:15:34.696Z,15.90
2018-03-24T14:18:02.931Z,15.90
2018-03-24T14:20:30.381Z,15.90
2018-03-24T14:22:57.914Z,15.90
2018-03-24T14:25:25.372Z,15.90
2018-03-24T14:27:52.869Z,15.80
2018-03-24T14:30:20.368Z,15.80
2018-03-24T14:32:48.609Z,15.60
2018-03-24T14:35:16.071Z,15.60
2018-03-24T14:37:44.316Z,15.60
2018-03-24T14:40:11.772Z,15.60
2018-03-24T14:42:39.270Z,15.40
2018-03-24T14:45:06.714Z,15.40
2018-03-24T14:47:34.196Z,15.30
2018-03-24T14:50:02.459Z,15.20
2018-03-24T14:52:29.933Z,15.10
2018-03-24T14:54:57.416Z,15.20
2018-03-24T14:57:24.909Z,15.10
2018-03-24T14:59:52.390Z,15.10
2018-03-24T15:02:20.607Z,15.00
2018-03-24T15:04:48.104Z,14.90
2018-03-24T15:07:15.579Z,15.00
2018-03-24T15:09:43.810Z,14.90
2018-03-24T15:12:11.331Z,14.90
2018-03-24T15:14:38.811Z,14.90
2018-03-24T15:17:06.280Z,15.00
2018-03-24T15:19:33.769Z,15.00
2018-03-24T15:22:01.257Z,14.90
2018-03-24T15:24:28.769Z,14.80
2018-03-24T15:26:56.248Z,14.70
2018-03-24T15:29:36.316Z,14.80
2018-03-24T15:35:22.102Z,14.60
2018-03-24T15:37:50.322Z,14.30
2018-03-24T15:40:17.819Z,14.30
2018-03-24T15:42:45.274Z,14.20
2018-03-24T15:45:12.726Z,14.10
2018-03-24T15:47:40.230Z,14.00
2018-03-24T15:50:07.691Z,13.90
2018-03-24T15:52:35.195Z,13.90
2018-03-24T15:55:02.655Z,13.80
2018-03-24T15:57:30.142Z,13.70
2018-03-24T15:59:58.418Z,13.70
2018-03-24T16:02:26.655Z,13.70
2018-03-24T16:04:54.169Z,13.70
2018-03-24T16:07:21.662Z,13.60
2018-03-24T16:09:49.174Z,13.50
2018-03-24T16:12:16.656Z,13.50
2018-03-24T16:14:44.099Z,13.40
2018-03-24T16:17:11.680Z,13.30
2018-03-24T16:19:39.180Z,13.30
2018-03-24T16:22:07.416Z,13.10
2018-03-24T16:24:34.945Z,13.10
2018-03-24T16:27:02.466Z,13.10
2018-03-24T16:29:30.780Z,13.00
2018-03-24T16:31:58.300Z,13.00
2018-03-24T16:34:26.615Z,13.00
2018-03-24T16:36:54.158Z,13.00
2018-03-24T16:39:21.740Z,13.00
2018-03-24T16:41:49.246Z,13.00
2018-03-24T16:44:16.786Z,13.00
2018-03-24T16:46:44.328Z,12.90
2018-03-24T16:49:11.866Z,12.90
2018-03-24T16:51:39.381Z,12.80
2018-03-24T16:54:07.610Z,12.80
2018-03-24T16:56:35.081Z,12.80
2018-03-24T16:59:02.549Z,12.80
2018-03-24T17:01:30.037Z,12.80
2018-03-24T17:03:58.293Z,12.70
2018-03-24T17:06:25.771Z,12.70
2018-03-24T17:08:54.065Z,12.60
2018-03-24T17:11:21.527Z,12.60
2018-03-24T17:13:49.021Z,12.60
2018-03-24T17:16:16.531Z,12.50
2018-03-24T17:18:43.988Z,12.50
2018-03-24T17:21:11.704Z,12.50
2018-03-24T17:23:39.164Z,12.50
2018-03-24T17:26:06.662Z,12.50
2018-03-24T17:28:34.124Z,12.40
2018-03-24T17:31:01.647Z,12.40
2018-03-24T17:33:29.095Z,12.40
2018-03-24T17:35:56.601Z,12.40
2018-03-24T17:38:24.056Z,12.30
2018-03-24T17:40:51.563Z,12.30
2018-03-24T17:43:19.019Z,12.20
2018-03-24T17:45:46.487Z,12.20
2018-03-24T17:48:14.757Z,12.00
2018-03-24T17:50:42.217Z,12.00
2018-03-24T17:53:10.458Z,11.90
2018-03-24T17:55:37.937Z,11.90
2018-03-24T17:58:05.430Z,11.90
2018-03-24T18:00:32.901Z,11.90
2018-03-24T18:03:00.396Z,11.80
2018-03-24T18:05:27.865Z,11.80
2018-03-24T18:07:55.469Z,11.70
2018-03-24T18:10:22.957Z,11.70
2018-03-24T18:12:50.448Z,11.70
2018-03-24T18:15:18.008Z,11.70
2018-03-24T18:17:46.265Z,11.60
2018-03-24T18:20:13.768Z,11.50
2018-03-24T18:22:41.281Z,11.60
2018-03-24T18:25:08.757Z,11.60
2018-03-24T18:27:36.975Z,11.50
2018-03-24T18:30:04.481Z,11.50
2018-03-24T18:32:31.964Z,11.40
2018-03-24T18:35:00.237Z,11.40
2018-03-24T18:37:27.677Z,11.40
2018-03-24T18:39:55.945Z,11.30
2018-03-24T18:42:23.397Z,11.30
2018-03-24T18:44:50.905Z,11.30
2018-03-24T18:47:18.433Z,11.20
2018-03-24T18:49:46.691Z,11.20
2018-03-24T18:52:14.177Z,11.20
2018-03-24T18:54:41.668Z,11.10
2018-03-24T18:57:09.161Z,11.10
2018-03-24T18:59:37.412Z,11.00
2018-03-24T19:02:04.901Z,10.90
2018-03-24T19:04:33.166Z,10.90
2018-03-24T19:07:00.675Z,10.90
2018-03-24T19:09:28.146Z,10.80
2018-03-24T19:11:55.645Z,10.80
2018-03-24T19:14:23.115Z,10.70
2018-03-24T19:16:51.372Z,10.60
2018-03-24T19:19:18.834Z,10.60
2018-03-24T19:21:47.093Z,10.60
2018-03-24T19:24:14.589Z,10.60
2018-03-24T19:26:42.076Z,10.50
2018-03-24T19:29:09.522Z,10.50
2018-03-24T19:31:37.027Z,10.50
2018-03-24T19:34:04.495Z,10.50
2018-03-24T19:36:32.777Z,10.50
2018-03-24T19:39:01.012Z,10.40
2018-03-24T19:41:28.568Z,10.40
2018-03-24T19:43:56.076Z,10.40
2018-03-24T19:46:23.629Z,10.30
2018-03-24T19:48:51.936Z,10.30
2018-03-24T19:51:19.437Z,10.30
2018-03-24T19:53:47.764Z,10.20
2018-03-24T19:56:15.268Z,10.20
2018-03-24T19:58:43.604Z,10.10
2018-03-24T20:01:11.132Z,10.00
2018-03-24T20:03:38.691Z,10.00
2018-03-24T20:06:06.946Z,9.90
2018-03-24T20:08:35.237Z,9.80
2018-03-24T20:11:03.509Z,9.70
2018-03-24T20:13:31.883Z,9.70
2018-03-24T20:16:00.164Z,9.60
2018-03-24T20:18:28.545Z,9.50
2018-03-24T20:20:56.901Z,9.50
2018-03-24T20:23:24.400Z,9.50
2018-03-24T20:25:51.929Z,9.50
2018-03-24T20:28:20.260Z,9.40
2018-03-24T20:30:47.844Z,9.30
2018-03-24T20:33:16.906Z,9.30
2018-03-24T20:35:44.437Z,9.30
2018-03-24T20:38:11.936Z,9.30
2018-03-24T20:40:39.502Z,9.20
2018-03-24T20:43:07.027Z,9.10
2018-03-24T20:45:34.570Z,9.10
2018-03-24T20:48:02.116Z,9.10
2018-03-24T20:50:29.630Z,9.00
2018-03-24T20:52:57.199Z,9.00
2018-03-24T20:55:24.795Z,8.90
2018-03-24T20:57:52.355Z,8.90
2018-03-24T21:00:19.880Z,8.90
2018-03-24T21:02:47.442Z,9.00
2018-03-24T21:05:14.981Z,9.10
2018-03-24T21:07:42.582Z,9.10
2018-03-24T21:10:10.095Z,9.10
2018-03-24T21:12:37.658Z,9.10
2018-03-24T21:15:05.167Z,9.10
2018-03-24T21:17:32.738Z,9.10
2018-03-24T21:20:00.245Z,9.00
2018-03-24T21:22:27.768Z,9.00
2018-03-24T21:24:55.339Z,8.90
2018-03-24T21:27:22.838Z,8.90
2018-03-24T21:29:51.194Z,8.70
2018-03-24T21:32:18.722Z,8.80
2018-03-24T21:34:46.248Z,8.70
2018-03-24T21:37:13.779Z,8.70
2018-03-24T21:39:42.020Z,8.50
2018-03-24T21:42:09.528Z,8.50
2018-03-24T21:44:37.800Z,8.40
2018-03-24T21:47:06.092Z,8.40
2018-03-24T21:49:33.580Z,8.40
2018-03-24T21:52:01.073Z,8.30
2018-03-24T21:54:28.590Z,8.30
2018-03-24T21:56:56.068Z,8.30
2018-03-24T21:59:23.561Z,8.30
2018-03-24T22:01:51.790Z,8.20
2018-03-24T22:04:19.241Z,8.20
2018-03-24T22:06:46.734Z,8.20
2018-03-24T22:09:14.193Z,8.10
2018-03-24T22:11:42.439Z,8.00
2018-03-24T22:14:09.912Z,8.00
2018-03-24T22:16:37.392Z,7.90
2018-03-24T22:19:04.860Z,7.90
2018-03-24T22:21:32.353Z,7.90
2018-03-24T22:23:59.816Z,7.80
2018-03-24T22:26:27.308Z,7.80
2018-03-24T22:28:55.534Z,7.80
2018-03-24T22:31:23.057Z,7.70
2018-03-24T22:33:50.542Z,7.70
2018-03-24T22:36:18.046Z,7.70
2018-03-24T22:38:45.533Z,7.60
2018-03-24T22:41:13.048Z,7.60
2018-03-24T22:43:40.559Z,7.60
2018-03-24T22:46:08.069Z,7.50
2018-03-24T22:48:35.564Z,7.50
2018-03-24T22:51:03.029Z,7.40
2018-03-24T22:53:30.559Z,7.40
2018-03-24T22:55:58.797Z,7.40
2018-03-24T22:58:26.257Z,7.30
2018-03-24T23:00:53.750Z,7.30
2018-03-24T23:03:22.004Z,7.30
2018-03-24T23:05:49.481Z,7.30
2018-03-24T23:08:17.763Z,7.20
2018-03-24T23:10:45.972Z,7.20
2018-03-24T23:13:13.447Z,7.20
2018-03-24T23:15:40.903Z,7.10
2018-03-24T23:18:08.385Z,7.10
2018-03-24T23:20:36.609Z,7.00
2018-03-24T23:23:04.071Z,7.00
2018-03-24T23:25:31.559Z,7.00
2018-03-24T23:27:59.006Z,6.90
2018-03-24T23:30:26.492Z,6.90
2018-03-24T23:32:54.729Z,6.90
2018-03-24T23:35:22.233Z,6.90
2018-03-24T23:37:49.690Z,6.90
2018-03-24T23:40:17.937Z,6.80
2018-03-24T23:42:45.375Z,6.80
2018-03-24T23:45:12.871Z,6.80
2018-03-24T23:47:41.104Z,6.60
2018-03-24T23:50:08.602Z,6.60
2018-03-24T23:52:36.821Z,6.50
2018-03-24T23:55:04.312Z,6.50
2018-03-24T23:57:31.768Z,6.50
2018-03-24T23:59:59.266Z,6.40
